createdAt,value
2022-09-06T00:00:26.468Z,18.87
2022-09-06T00:02:53.602Z,18.75
2022-09-06T00:05:20.962Z,18.72
2022-09-06T00:07:48.059Z,18.89
2022-09-06T00:10:15.456Z,18.70
2022-09-06T00:12:42.458Z,18.53
2022-09-06T00:15:10.108Z,18.55
2022-09-06T00:17:37.228Z,18.62
2022-09-06T00:20:09.143Z,18.59
2022-09-06T00:22:37.741Z,18.44
2022-09-06T00:25:06.548Z,18.44
2022-09-06T00:27:34.636Z,18.43
2022-09-06T00:30:01.811Z,18.59
2022-09-06T00:32:28.785Z,18.54
2022-09-06T00:34:55.817Z,18.60
2022-09-06T00:37:22.830Z,18.66
2022-09-06T00:39:49.848Z,18.66
2022-09-06T00:42:16.920Z,18.61
2022-09-06T00:44:43.977Z,18.82
2022-09-06T00:47:11.180Z,18.76
2022-09-06T00:49:45.034Z,18.88
2022-09-06T00:52:15.440Z,18.82
2022-09-06T00:54:43.304Z,18.88
2022-09-06T00:57:11.038Z,18.94
2022-09-06T00:59:39.905Z,18.99
2022-09-06T01:02:09.368Z,18.99
2022-09-06T01:04:39.275Z,19.06
2022-09-06T01:07:31.704Z,19.04
2022-09-06T01:10:14.559Z,18.91
2022-09-06T01:13:12.828Z,18.82
2022-09-06T01:16:15.137Z,18.93
2022-09-06T01:19:03.214Z,18.88
2022-09-06T01:22:02.194Z,18.71
2022-09-06T01:24:58.576Z,18.51
2022-09-06T01:28:25.070Z,18.53
2022-09-06T01:31:11.763Z,18.49
2022-09-06T01:33:58.472Z,18.62
2022-09-06T01:36:32.099Z,18.37
2022-09-06T01:38:59.114Z,18.31
2022-09-06T01:41:26.577Z,18.16
2022-09-06T01:43:55.550Z,18.18
2022-09-06T01:46:58.762Z,18.12
2022-09-06T01:50:12.435Z,18.06
2022-09-06T01:52:58.875Z,17.98
2022-09-06T01:56:03.156Z,17.95
2022-09-06T01:59:07.291Z,17.85
2022-09-06T02:02:03.773Z,18.02
2022-09-06T02:04:51.935Z,17.83
2022-09-06T02:07:32.570Z,17.81
2022-09-06T02:10:39.338Z,17.98
2022-09-06T02:13:08.611Z,17.98
2022-09-06T02:15:44.539Z,17.90
2022-09-06T02:18:24.181Z,17.81
2022-09-06T02:20:58.766Z,17.92
2022-09-06T02:23:31.272Z,17.91
2022-09-06T02:26:21.107Z,17.86
2022-09-06T02:28:48.782Z,17.87
2022-09-06T02:31:38.032Z,17.72
2022-09-06T02:34:05.826Z,17.80
2022-09-06T02:36:35.367Z,17.66
2022-09-06T02:39:02.383Z,17.51
2022-09-06T02:41:31.086Z,17.50
2022-09-06T02:43:58.260Z,17.51
2022-09-06T02:46:25.403Z,17.49
2022-09-06T02:48:52.597Z,17.49
2022-09-06T02:51:20.634Z,17.50
2022-09-06T02:53:48.002Z,17.53
2022-09-06T02:56:15.077Z,17.42
2022-09-06T02:58:42.113Z,17.41
2022-09-06T03:01:09.340Z,17.42
2022-09-06T03:03:36.605Z,17.50
2022-09-06T03:06:03.683Z,17.40
2022-09-06T03:08:33.629Z,17.42
2022-09-06T03:11:01.671Z,17.35
2022-09-06T03:13:29.219Z,17.45
2022-09-06T03:15:59.365Z,17.41
2022-09-06T03:18:29.758Z,17.52
2022-09-06T03:20:57.998Z,17.53
2022-09-06T03:23:28.127Z,17.58
2022-09-06T03:25:56.123Z,17.58
2022-09-06T03:28:23.972Z,17.61
2022-09-06T03:30:52.116Z,17.53
2022-09-06T03:33:20.776Z,17.46
2022-09-06T03:35:54.839Z,17.36
2022-09-06T03:38:23.686Z,17.29
2022-09-06T03:40:52.848Z,17.24
2022-09-06T03:43:23.030Z,17.07
2022-09-06T03:45:57.193Z,17.12
2022-09-06T03:48:29.346Z,17.10
2022-09-06T03:50:58.752Z,17.02
2022-09-06T03:53:27.527Z,17.09
2022-09-06T03:55:57.554Z,17.01
2022-09-06T03:58:29.970Z,16.99
2022-09-06T04:01:06.951Z,17.04
2022-09-06T04:03:35.322Z,16.99
2022-09-06T04:06:03.267Z,16.95
2022-09-06T04:08:30.668Z,16.95
2022-09-06T04:10:59.125Z,16.95
2022-09-06T04:13:28.576Z,16.84
2022-09-06T04:15:55.782Z,16.92
2022-09-06T04:18:22.907Z,16.86
2022-09-06T04:20:52.995Z,16.89
2022-09-06T04:23:21.325Z,16.94
2022-09-06T04:25:54.436Z,16.99
2022-09-06T04:28:22.397Z,16.82
2022-09-06T04:31:04.571Z,16.84
2022-09-06T04:33:34.056Z,16.82
2022-09-06T04:36:03.465Z,16.81
2022-09-06T04:38:34.990Z,16.82
2022-09-06T04:41:01.990Z,16.77
2022-09-06T04:43:29.019Z,16.75
2022-09-06T04:45:56.131Z,16.75
2022-09-06T04:48:23.220Z,16.72
2022-09-06T04:50:50.223Z,16.70
2022-09-06T04:53:17.215Z,16.68
2022-09-06T04:55:44.267Z,16.72
2022-09-06T04:58:11.249Z,16.68
2022-09-06T05:00:39.003Z,16.63
2022-09-06T05:03:06.159Z,16.62
2022-09-06T05:05:33.391Z,16.65
2022-09-06T05:08:00.416Z,16.66
2022-09-06T05:10:27.589Z,16.45
2022-09-06T05:12:55.304Z,16.40
2022-09-06T05:15:23.397Z,16.43
2022-09-06T05:17:50.578Z,16.39
2022-09-06T05:20:18.523Z,16.28
2022-09-06T05:22:54.373Z,16.31
2022-09-06T05:25:21.825Z,16.39
2022-09-06T05:27:49.163Z,16.35
2022-09-06T05:30:18.092Z,16.40
2022-09-06T05:32:45.329Z,16.53
2022-09-06T05:35:12.384Z,16.46
2022-09-06T05:37:39.588Z,16.52
2022-09-06T05:40:07.519Z,16.53
2022-09-06T05:42:34.763Z,16.55
2022-09-06T05:45:02.397Z,16.55
2022-09-06T05:47:31.236Z,16.63
2022-09-06T05:49:58.362Z,16.70
2022-09-06T05:52:25.403Z,16.69
2022-09-06T05:54:52.511Z,16.83
2022-09-06T05:57:19.706Z,16.88
2022-09-06T05:59:46.771Z,16.93
2022-09-06T06:02:13.932Z,17.03
2022-09-06T06:04:40.933Z,17.17
2022-09-06T06:07:07.943Z,17.15
2022-09-06T06:09:34.924Z,17.18
2022-09-06T06:12:02.108Z,17.37
2022-09-06T06:14:29.117Z,17.26
2022-09-06T06:16:56.312Z,17.30
2022-09-06T06:19:23.424Z,17.35
2022-09-06T06:21:50.457Z,17.44
2022-09-06T06:24:17.551Z,17.73
2022-09-06T06:26:44.926Z,17.73
2022-09-06T06:29:11.926Z,17.96
2022-09-06T06:31:39.472Z,18.13
2022-09-06T06:34:07.350Z,18.04
2022-09-06T06:36:36.732Z,18.18
2022-09-06T06:39:07.396Z,18.14
2022-09-06T06:41:34.709Z,18.24
2022-09-06T06:44:04.576Z,18.22
2022-09-06T06:46:35.603Z,18.34
2022-09-06T06:49:03.409Z,18.39
2022-09-06T06:51:37.207Z,18.53
2022-09-06T06:54:05.756Z,18.60
2022-09-06T06:56:34.928Z,18.68
2022-09-06T06:59:05.865Z,18.67
2022-09-06T07:01:36.018Z,18.78
2022-09-06T07:04:04.387Z,18.97
2022-09-06T07:09:20.251Z,19.04
2022-09-06T07:11:51.337Z,19.29
2022-09-06T07:14:18.878Z,19.32
2022-09-06T07:16:46.306Z,19.48
2022-09-06T07:22:04.423Z,19.64
2022-09-06T07:24:32.843Z,19.93
2022-09-06T07:29:47.007Z,19.86
2022-09-06T07:32:14.023Z,20.04
2022-09-06T07:34:41.727Z,20.24
2022-09-06T07:37:08.822Z,20.29
2022-09-06T07:39:37.136Z,20.58
2022-09-06T07:42:04.644Z,20.79
2022-09-06T07:44:31.690Z,20.62
2022-09-06T07:55:20.115Z,21.25
2022-09-06T07:57:47.142Z,21.67
2022-09-06T08:00:14.400Z,21.58
2022-09-06T08:02:41.499Z,21.59
2022-09-06T08:10:42.872Z,22.43
2022-09-06T08:13:09.946Z,22.27
2022-09-06T08:15:41.125Z,22.28
2022-09-06T08:18:08.705Z,22.43
2022-09-06T08:20:35.942Z,22.39
2022-09-06T08:23:03.042Z,22.15
2022-09-06T08:25:30.036Z,22.23
2022-09-06T08:27:57.122Z,22.29
2022-09-06T08:30:24.131Z,22.36
2022-09-06T08:32:52.347Z,23.00
2022-09-06T08:35:19.371Z,23.35
2022-09-06T08:37:46.552Z,22.83
2022-09-06T08:40:20.132Z,23.38
2022-09-06T08:42:48.340Z,23.21
2022-09-06T08:45:19.531Z,23.26
2022-09-06T08:47:46.671Z,23.37
2022-09-06T08:50:13.719Z,23.69
2022-09-06T08:53:17.291Z,23.50
2022-09-06T08:56:03.561Z,23.36
2022-09-06T08:58:36.377Z,23.59
2022-09-06T09:01:11.577Z,23.81
2022-09-06T09:03:45.848Z,23.43
2022-09-06T09:06:13.138Z,23.54
2022-09-06T09:09:01.737Z,23.94
2022-09-06T09:11:30.356Z,23.99
2022-09-06T09:14:21.547Z,23.89
2022-09-06T09:17:03.419Z,23.91
2022-09-06T09:19:33.569Z,23.91
2022-09-06T09:22:01.692Z,23.93
2022-09-06T09:24:29.093Z,23.97
2022-09-06T09:27:18.541Z,24.07
2022-09-06T09:32:45.914Z,24.15
2022-09-06T09:35:33.960Z,24.18
2022-09-06T09:38:24.224Z,24.25
2022-09-06T09:40:53.032Z,24.33
2022-09-06T09:43:22.939Z,24.19
2022-09-06T09:46:15.835Z,24.40
2022-09-06T09:49:04.578Z,24.61
2022-09-06T09:51:44.143Z,24.29
2022-09-06T09:54:29.931Z,24.81
2022-09-06T09:56:57.989Z,24.81
2022-09-06T09:59:36.877Z,24.92
2022-09-06T10:02:24.942Z,25.23
2022-09-06T10:05:20.081Z,25.39
2022-09-06T10:10:41.765Z,25.04
2022-09-06T10:13:31.626Z,25.18
2022-09-06T10:16:00.655Z,25.27
2022-09-06T10:18:33.444Z,25.12
2022-09-06T10:21:22.769Z,24.97
2022-09-06T10:24:30.682Z,25.19
2022-09-06T10:29:56.782Z,25.34
2022-09-06T10:35:48.403Z,25.84
2022-09-06T10:38:41.040Z,25.56
2022-09-06T10:52:03.823Z,26.30
2022-09-06T10:54:36.741Z,26.13
2022-09-06T11:00:17.174Z,26.40
2022-09-06T11:06:12.754Z,26.22
2022-09-06T11:09:19.389Z,26.35
2022-09-06T11:12:12.684Z,26.43
2022-09-06T11:14:41.326Z,26.08
2022-09-06T11:17:37.590Z,26.31
2022-09-06T11:20:18.108Z,26.28
2022-09-06T11:23:14.447Z,26.76
2022-09-06T11:26:08.491Z,26.36
2022-09-06T11:28:52.706Z,26.86
2022-09-06T11:34:37.350Z,26.81
2022-09-06T11:45:21.410Z,26.92
2022-09-06T11:47:53.844Z,27.10
2022-09-06T11:50:20.682Z,26.94
2022-09-06T11:53:14.382Z,26.93
2022-09-06T11:56:00.281Z,27.09
2022-09-06T11:58:41.720Z,26.96
2022-09-06T12:01:16.573Z,26.82
2022-09-06T12:07:06.918Z,27.02
2022-09-06T12:09:45.524Z,27.20
2022-09-06T12:12:32.445Z,27.33
2022-09-06T12:15:26.966Z,27.07
2022-09-06T12:17:54.220Z,27.19
2022-09-06T12:20:49.391Z,27.29
2022-09-06T12:23:36.532Z,27.52
2022-09-06T12:26:11.506Z,27.72
2022-09-06T12:28:43.783Z,28.03
2022-09-06T12:31:38.818Z,27.92
2022-09-06T12:34:12.115Z,27.70
2022-09-06T12:37:10.670Z,27.71
2022-09-06T12:39:38.068Z,26.94
2022-09-06T12:42:12.994Z,27.26
2022-09-06T12:44:49.152Z,27.71
2022-09-06T12:47:29.331Z,27.91
2022-09-06T12:50:26.031Z,27.48
2022-09-06T12:52:56.678Z,27.56
2022-09-06T12:55:29.605Z,27.68
2022-09-06T12:58:00.614Z,27.65
2022-09-06T13:00:47.448Z,27.72
2022-09-06T13:03:31.590Z,27.64
2022-09-06T13:06:02.307Z,27.97
2022-09-06T13:11:19.700Z,27.86
2022-09-06T13:13:53.736Z,28.14
2022-09-06T13:16:25.454Z,28.10
2022-09-06T13:18:54.190Z,28.02
2022-09-06T13:21:33.399Z,27.93
2022-09-06T13:24:04.060Z,28.06
2022-09-06T13:26:40.054Z,27.93
2022-09-06T13:29:30.886Z,28.25
2022-09-06T13:32:01.957Z,28.55
2022-09-06T13:34:33.926Z,28.47
2022-09-06T13:54:11.898Z,28.37
2022-09-06T13:56:39.345Z,28.02
2022-09-06T13:59:07.954Z,28.38
2022-09-06T14:04:22.474Z,28.64
2022-09-06T14:06:49.985Z,28.39
2022-09-06T14:09:17.143Z,28.56
2022-09-06T14:11:48.245Z,28.72
2022-09-06T14:17:05.193Z,28.82
2022-09-06T14:19:32.709Z,28.83
2022-09-06T14:40:45.456Z,28.85
2022-09-06T14:43:12.575Z,28.63
2022-09-06T14:45:39.872Z,28.69
2022-09-06T14:48:07.186Z,28.95
2022-09-06T14:50:34.585Z,28.97
2022-09-06T14:53:02.508Z,28.92
2022-09-06T14:55:30.217Z,28.91
2022-09-06T14:57:59.079Z,29.08
2022-09-06T15:00:26.193Z,28.79
2022-09-06T15:02:54.550Z,29.07
2022-09-06T15:05:36.593Z,29.11
2022-09-06T15:10:54.844Z,28.79
2022-09-06T15:19:37.319Z,28.63
2022-09-06T15:22:06.265Z,28.64
2022-09-06T15:24:34.529Z,28.45
2022-09-06T15:29:52.941Z,28.67
2022-09-06T15:32:19.969Z,28.71
2022-09-06T15:34:49.283Z,28.67
2022-09-06T15:37:16.318Z,28.68
2022-09-06T15:39:43.332Z,28.68
2022-09-06T15:42:10.409Z,28.51
2022-09-06T15:47:16.134Z,28.66
2022-09-06T15:49:43.243Z,28.56
2022-09-06T15:52:10.717Z,28.51
2022-09-06T15:54:56.395Z,28.36
2022-09-06T15:57:24.359Z,28.49
2022-09-06T15:59:51.448Z,28.50
2022-09-06T16:02:18.485Z,28.65
2022-09-06T16:04:46.298Z,28.49
2022-09-06T16:07:13.582Z,28.60
2022-09-06T16:09:40.637Z,28.57
2022-09-06T16:12:08.598Z,28.35
2022-09-06T16:14:35.747Z,28.24
2022-09-06T16:17:02.789Z,28.23
2022-09-06T16:19:29.926Z,28.10
2022-09-06T16:21:58.717Z,28.03
2022-09-06T16:24:26.561Z,28.04
2022-09-06T16:26:53.601Z,27.99
2022-09-06T16:29:21.517Z,27.95
2022-09-06T16:31:48.706Z,28.01
2022-09-06T16:34:16.371Z,27.90
2022-09-06T16:36:43.803Z,27.78
2022-09-06T16:39:14.359Z,27.72
2022-09-06T16:41:45.844Z,27.60
2022-09-06T16:44:17.580Z,27.59
2022-09-06T16:46:47.035Z,27.54
2022-09-06T16:49:16.880Z,27.68
2022-09-06T16:51:44.815Z,27.62
2022-09-06T16:54:12.192Z,27.62
2022-09-06T16:56:40.086Z,27.64
2022-09-06T16:59:09.636Z,27.61
2022-09-06T17:01:41.388Z,27.45
2022-09-06T17:04:09.618Z,27.32
2022-09-06T17:06:44.060Z,27.24
2022-09-06T17:09:17.725Z,27.16
2022-09-06T17:11:44.984Z,27.16
2022-09-06T17:14:12.007Z,27.01
2022-09-06T17:16:57.830Z,26.91
2022-09-06T17:19:25.285Z,26.86
2022-09-06T17:21:52.450Z,26.75
2022-09-06T17:24:19.826Z,26.72
2022-09-06T17:26:47.227Z,26.69
2022-09-06T17:29:14.296Z,26.72
2022-09-06T17:31:41.328Z,26.68
2022-09-06T17:34:08.347Z,26.62
2022-09-06T17:36:36.476Z,26.50
2022-09-06T17:39:21.025Z,26.53
2022-09-06T17:41:54.355Z,26.37
2022-09-06T17:44:27.731Z,26.37
2022-09-06T17:49:43.208Z,26.25
2022-09-06T17:52:11.095Z,26.13
2022-09-06T17:54:38.216Z,25.87
2022-09-06T17:57:05.228Z,25.55
2022-09-06T17:59:35.534Z,25.31
2022-09-06T18:02:04.871Z,25.18
2022-09-06T18:04:32.163Z,24.93
2022-09-06T18:06:59.282Z,24.92
2022-09-06T18:09:26.331Z,24.87
2022-09-06T18:11:53.390Z,24.82
2022-09-06T18:14:20.943Z,24.74
2022-09-06T18:16:51.145Z,24.62
2022-09-06T18:19:18.832Z,24.53
2022-09-06T18:21:47.212Z,24.42
2022-09-06T18:24:14.779Z,24.42
2022-09-06T18:26:43.034Z,24.31
2022-09-06T18:29:13.152Z,24.32
2022-09-06T18:31:41.195Z,24.26
2022-09-06T18:34:08.898Z,24.23
2022-09-06T18:36:38.016Z,24.19
2022-09-06T18:39:11.356Z,24.20
2022-09-06T18:41:57.236Z,24.12
2022-09-06T18:44:24.296Z,24.06
2022-09-06T18:46:55.791Z,24.11
2022-09-06T18:49:23.110Z,24.09
2022-09-06T18:51:50.670Z,24.04
2022-09-06T18:54:18.088Z,24.02
2022-09-06T18:56:45.122Z,24.05
2022-09-06T18:59:13.917Z,23.96
2022-09-06T19:01:43.070Z,23.90
2022-09-06T19:04:11.448Z,23.96
2022-09-06T19:06:41.147Z,23.92
2022-09-06T19:09:12.563Z,23.93
2022-09-06T19:11:41.567Z,23.90
2022-09-06T19:14:08.679Z,23.91
2022-09-06T19:16:36.262Z,23.85
2022-09-06T19:19:09.864Z,23.88
2022-09-06T19:21:41.630Z,23.81
2022-09-06T19:24:11.755Z,23.83
2022-09-06T19:26:42.361Z,23.78
2022-09-06T19:29:15.787Z,23.74
2022-09-06T19:31:43.866Z,23.64
2022-09-06T19:34:12.287Z,23.55
2022-09-06T19:36:39.472Z,23.56
2022-09-06T19:39:10.260Z,23.56
2022-09-06T19:41:42.998Z,23.52
2022-09-06T19:44:11.960Z,23.40
2022-09-06T19:46:45.885Z,23.36
2022-09-06T19:49:19.354Z,23.31
2022-09-06T19:51:48.920Z,23.32
2022-09-06T19:54:17.098Z,23.26
2022-09-06T19:56:45.195Z,23.21
2022-09-06T19:59:14.466Z,23.13
2022-09-06T20:01:43.322Z,23.05
2022-09-06T20:04:13.264Z,22.98
2022-09-06T20:06:40.694Z,22.82
2022-09-06T20:09:10.071Z,22.82
2022-09-06T20:11:39.315Z,22.78
2022-09-06T20:14:07.687Z,22.76
2022-09-06T20:16:39.374Z,22.68
2022-09-06T20:19:08.536Z,22.65
2022-09-06T20:24:02.793Z,22.55
2022-09-06T20:26:30.578Z,22.50
2022-09-06T20:29:00.065Z,22.43
2022-09-06T20:33:58.032Z,22.47
2022-09-06T20:36:25.359Z,22.47
2022-09-06T20:38:52.473Z,22.47
2022-09-06T20:41:25.744Z,22.38
2022-09-06T20:43:56.028Z,22.39
2022-09-06T20:46:29.117Z,22.34
2022-09-06T20:48:59.736Z,22.31
2022-09-06T20:51:27.021Z,22.27
2022-09-06T20:54:00.835Z,22.27
2022-09-06T20:56:34.404Z,22.16
2022-09-06T20:59:08.612Z,22.10
2022-09-06T21:01:40.610Z,22.16
2022-09-06T21:04:09.899Z,22.17
2022-09-06T21:06:39.509Z,22.14
2022-09-06T21:09:13.202Z,22.08
2022-09-06T21:11:41.087Z,22.19
2022-09-06T21:14:09.450Z,22.17
2022-09-06T21:16:38.769Z,22.11
2022-09-06T21:19:09.295Z,22.15
2022-09-06T21:21:37.283Z,22.15
2022-09-06T21:24:07.220Z,22.16
2022-09-06T21:26:34.573Z,22.12
2022-09-06T21:29:02.171Z,22.12
2022-09-06T21:31:36.299Z,22.13
2022-09-06T21:34:15.700Z,22.14
2022-09-06T21:36:44.418Z,22.20
2022-09-06T21:39:12.751Z,22.13
2022-09-06T21:41:42.313Z,22.14
2022-09-06T21:44:10.420Z,22.16
2022-09-06T21:46:39.267Z,22.23
2022-09-06T21:49:10.291Z,22.17
2022-09-06T21:51:37.853Z,22.22
2022-09-06T21:54:06.753Z,22.19
2022-09-06T21:56:36.209Z,22.23
2022-09-06T21:59:04.220Z,22.25
2022-09-06T22:01:34.482Z,22.18
2022-09-06T22:04:02.417Z,22.11
2022-09-06T22:06:32.623Z,22.18
2022-09-06T22:09:04.585Z,22.12
2022-09-06T22:11:34.329Z,22.10
2022-09-06T22:14:06.098Z,22.03
2022-09-06T22:16:37.015Z,21.85
2022-09-06T22:19:06.385Z,21.62
2022-09-06T22:21:34.292Z,21.41
2022-09-06T22:24:04.862Z,21.21
2022-09-06T22:26:34.984Z,20.74
2022-09-06T22:29:06.094Z,20.59
2022-09-06T22:31:35.862Z,20.32
2022-09-06T22:34:04.093Z,20.22
2022-09-06T22:36:31.887Z,19.93
2022-09-06T22:39:01.698Z,19.71
2022-09-06T22:41:33.238Z,19.68
2022-09-06T22:44:02.681Z,19.76
2022-09-06T22:46:30.837Z,19.65
2022-09-06T22:48:58.706Z,19.76
2022-09-06T22:51:25.879Z,19.72
2022-09-06T22:53:52.937Z,19.65
2022-09-06T22:56:20.068Z,19.66
2022-09-06T22:58:47.168Z,19.69
2022-09-06T23:01:16.688Z,19.76
2022-09-06T23:03:44.762Z,19.82
2022-09-06T23:06:12.196Z,19.64
2022-09-06T23:08:40.862Z,19.76
2022-09-06T23:11:12.473Z,19.89
2022-09-06T23:13:43.591Z,19.81
2022-09-06T23:16:18.492Z,19.96
2022-09-06T23:18:46.857Z,19.87
2022-09-06T23:21:17.467Z,20.00
2022-09-06T23:23:45.353Z,19.86
2022-09-06T23:26:16.867Z,20.03
2022-09-06T23:28:44.479Z,19.90
2022-09-06T23:31:15.768Z,19.52
2022-09-06T23:33:46.133Z,19.36
2022-09-06T23:36:14.896Z,19.28
2022-09-06T23:38:42.975Z,19.08
2022-09-06T23:41:10.850Z,19.05
2022-09-06T23:43:39.574Z,19.03
2022-09-06T23:46:09.719Z,18.84
2022-09-06T23:48:36.947Z,18.87
2022-09-06T23:51:05.194Z,18.74
2022-09-06T23:53:32.860Z,18.56
2022-09-06T23:56:00.327Z,18.59
2022-09-06T23:58:27.760Z,18.56
